FW8256 Weather Reports


Display with metric or nautical units.
time (UTC)temp
F
wind
direction
speed
MPH
gust
MPH
rain 1hr
in
rain 24hr
in
rain mn
in
humidity
%
barometer
mb
20230206200051 69 178 7.0 18.0 0.00 0.00 0.00 53 1007.9
20230206194542 67 138 6.0 14.0 0.00 0.00 0.00 56 1007.9
20230206193041 67 128 6.0 15.0 0.00 0.00 0.00 54 1008.0
20230206191539 68 174 6.0 17.0 0.00 0.00 0.00 54 1008.2
20230206190052 68 165 8.0 15.0 0.00 0.00 0.00 54 1008.5
20230206184535 70 162 7.0 14.0 0.00 0.00 0.00 52 1008.7
20230206183031 68 211 8.0 16.0 0.00 0.00 0.00 53 1009.1
20230206181531 68 206 6.0 16.0 0.00 0.00 0.00 56 1009.3
20230206180025 65 261 7.0 21.0 0.00 0.00 0.00 60 1009.3
20230206174522 65 228 9.0 18.0 0.00 0.00 0.00 60 1009.6
20230206173024 65 139 7.0 16.0 0.00 0.00 0.00 61 1009.8
20230206171517 64 115 9.0 18.0 0.00 0.00 0.00 62 1009.9
20230206170013 62 127 9.0 18.0 0.00 0.00 0.00 65 1009.9
20230206164510 62 240 9.0 15.0 0.00 0.00 0.00 66 1010.2
20230206163009 61 138 7.0 16.0 0.00 0.00 0.00 68 1010.2
20230206161507 60 281 6.0 15.0 0.00 0.00 0.00 68 1010.2
20230206160005 60 209 7.0 16.0 0.00 0.00 0.00 69 1010.2
20230206154600 59 150 6.0 20.0 0.00 0.00 0.00 71 1010.2
20230206153102 58 184 8.0 18.0 0.00 0.00 0.00 73 1010.3
20230206151552 56 200 8.0 18.0 0.00 0.00 0.00 75 1010.3
20230206150051 56 157 7.0 18.0 0.00 0.00 0.00 76 1010.4
20230206144556 54 163 8.0 18.0 0.00 0.00 0.00 79 1010.4
20230206143058 53 153 6.0 16.0 0.00 0.00 0.00 80 1010.6
20230206141542 52 201 7.0 16.0 0.00 0.00 0.00 82 1010.8
20230206140038 52 144 5.0 9.0 0.00 0.00 0.00 83 1010.9
20230206134537 51 202 4.0 12.0 0.00 0.00 0.00 83 1011.2
20230206133037 51 146 5.0 14.0 0.00 0.00 0.00 84 1011.0
20230206131549 51 228 6.0 12.0 0.00 0.00 0.00 85 1011.1
20230206130034 50 159 6.0 10.0 0.00 0.00 0.00 85 1011.2
20230206124531 50 153 6.0 16.0 0.00 0.00 0.00 85 1011.3
20230206123029 50 205 6.0 11.0 0.00 0.00 0.00 85 1011.3
20230206121528 50 185 5.0 12.0 0.00 0.00 0.00 85 1011.4
20230206120039 51 186 6.0 12.0 0.00 0.00 0.00 85 1011.6
20230206114528 51 162 5.0 12.0 0.00 0.00 0.00 84 1011.6
20230206113026 51 130 5.0 13.0 0.00 0.00 0.00 83 1011.4
20230206111530 51 245 6.0 12.0 0.00 0.00 0.00 83 1011.6
20230206110023 51 181 5.0 10.0 0.00 0.00 0.00 84 1011.7
20230206104523 51 182 5.0 11.0 0.00 0.00 0.00 85 1011.7
20230206103020 51 154 4.0 11.0 0.00 0.00 0.00 84 1011.9
20230206101519 51 178 5.0 12.0 0.00 0.00 0.00 83 1012.0
20230206100017 52 161 6.0 11.0 0.00 0.00 0.00 83 1012.2
20230206094514 51 173 5.0 10.0 0.00 0.00 0.00 84 1012.5
20230206093013 51 252 5.0 10.0 0.00 0.00 0.00 83 1012.8
20230206091514 51 154 5.0 10.0 0.00 0.00 0.00 84 1013.0
20230206090011 51 173 5.0 10.0 0.00 0.00 0.00 84 1013.0
20230206084514 50 171 5.0 12.0 0.00 0.00 0.00 85 1013.2
20230206083007 50 157 4.0 11.0 0.00 0.00 0.00 85 1013.3
20230206081506 50 217 5.0 12.0 0.00 0.00 0.00 85 1013.4
20230206080002 50 147 4.0 12.0 0.00 0.00 0.00 85 1013.6
20230206074600 50 232 5.0 12.0 0.00 0.00 0.00 84 1013.9
20230206073057 51 113 5.0 16.0 0.00 0.00 0.00 83 1014.0
20230206071554 51 188 5.0 14.0 0.00 0.00 0.00 83 1014.2
20230206070100 51 184 5.0 15.0 0.00 0.00 0.00 82 1014.4
20230206064550 52 178 7.0 14.0 0.00 0.00 0.00 82 1014.6
20230206063046 52 101 7.0 11.0 0.00 0.00 0.00 81 1014.7
20230206061541 52 164 4.0 12.0 0.00 0.00 0.00 80 1015.0
20230206060036 52 153 4.0 11.0 0.00 0.00 0.00 79 1015.3
20230206054534 52 150 4.0 10.0 0.00 0.00 0.00 78 1015.9
20230206053033 52 132 5.0 10.0 0.00 0.00 0.00 77 1016.1
20230206051543 52 245 4.0 10.0 0.00 0.00 0.00 76 1016.3
20230206050029 51 140 3.0 10.0 0.00 0.00 0.00 76 1016.5
20230206044534 51 141 3.0 8.0 0.00 0.00 0.00 75 1016.7
20230206043025 52 150 3.0 8.0 0.00 0.00 0.00 74 1016.8
20230206041524 52 150 3.0 7.0 0.00 0.00 0.00 73 1016.9
20230206040034 52 146 3.0 7.0 0.00 0.00 0.00 72 1017.0
20230206034521 53 229 3.0 8.0 0.00 0.00 0.00 71 1017.1
20230206033022 53 150 2.0 6.0 0.00 0.00 0.00 71 1017.3
20230206031519 53 130 2.0 5.0 0.00 0.00 0.00 70 1017.6
20230206030021 52 135 1.0 5.0 0.00 0.00 0.00 69 1017.7
20230206024518 52 132 0.0 2.0 0.00 0.00 0.00 66 1017.7
20230206023018 52 131 0.0 1.0 0.00 0.00 0.00 63 1017.8
20230206021530 53 131 1.0 2.0 0.00 0.00 0.00 62 1017.8
20230206020015 52 131 0.0 2.0 0.00 0.00 0.00 58 1017.9
20230206014515 51 131 0.0 1.0 0.00 0.00 0.00 58 1018.0
20230206013016 52 131 0.0 0.0 0.00 0.00 0.00 54 1018.2
20230206011517 54 131 0.0 0.0 0.00 0.00 0.00 51 1018.1
20230206010015 56 131 0.0 1.0 0.00 0.00 0.00 47 1018.1
20230206004517 57 131 0.0 1.0 0.00 0.00 0.00 46 1018.0
20230206003012 59 131 1.0 2.0 0.00 0.00 0.00 44 1017.9
20230206001511 60 131 1.0 2.0 0.00 0.00 0.00 42 1017.8
20230206000019 61 124 2.0 4.0 0.00 0.00 0.00 39 1017.8
20230205234529 63 104 1.0 6.0 0.00 0.00 0.00 38 1017.6
20230205233010 64 122 3.0 7.0 0.00 0.00 0.00 37 1017.5
20230205231509 64 113 4.0 10.0 0.00 0.00 0.00 36 1017.6
20230205230007 65 112 6.0 13.0 0.00 0.00 0.00 34 1017.4
20230205224507 66 102 4.0 10.0 0.00 0.00 0.00 33 1017.5
20230205223004 66 113 3.0 9.0 0.00 0.00 0.00 32 1017.8
20230205221505 66 99 5.0 11.0 0.00 0.00 0.00 32 1017.9
20230205220106 66 89 5.0 10.0 0.00 0.00 0.00 32 1018.1
20230205214559 66 101 6.0 10.0 0.00 0.00 0.00 32 1018.4
20230205213115 66 121 3.0 7.0 0.00 0.00 0.00 32 1019.0
20230205211603 65 92 4.0 8.0 0.00 0.00 0.00 33 1019.3
20230205210047 64 23 2.0 5.0 0.00 0.00 0.00 35 1019.5
20230205204545 64 112 3.0 8.0 0.00 0.00 0.00 34 1019.7
20230205203048 63 121 2.0 7.0 0.00 0.00 0.00 36 1019.8
20230205201554 63 121 3.0 13.0 0.00 0.00 0.00 36 1020.0